Terminal Aerodrome Forecast
Issued by NWS Cleveland, OH

Home | Current Version | Previous Version | Graphics & Text | Print | Product List | Glossary Off
Versions: 1 2 3 4 5 6 7 8 9 10 11 12 13 14 15

000
FTUS41 KCLE 221100
TAFYNG
TAF
KYNG 221129Z 2212/2312 24006KT P6SM VCSH BKN080
      TEMPO 2212/2213 27008KT 6SM -SHRA BKN060
     FM221500 30010KT P6SM BKN080
     FM221700 30012G20KT P6SM SCT070
     FM230100 VRB05KT P6SM SKC=

USA.gov is the U.S. government's official web portal to all federal, state and local government web resources and services.